createdAt,value
2023-03-26T00:00:53.044Z,57.22
2023-03-26T00:01:53.073Z,55.75
2023-03-26T00:02:53.156Z,54.94
2023-03-26T00:03:53.047Z,52.63
2023-03-26T00:04:53.021Z,53.31
2023-03-26T00:05:53.164Z,55.81
2023-03-26T00:06:53.023Z,53.08
2023-03-26T00:07:53.023Z,55.92
2023-03-26T00:08:52.998Z,56.53
2023-03-26T00:09:53.036Z,54.78
2023-03-26T00:10:53.039Z,55.65
2023-03-26T00:11:53.007Z,56.29
2023-03-26T00:12:52.988Z,54.26
2023-03-26T00:13:53.014Z,58.09
2023-03-26T00:14:52.988Z,56.10
2023-03-26T00:15:53.346Z,58.03
2023-03-26T00:16:53.042Z,56.48
2023-03-26T00:17:53.010Z,52.95
2023-03-26T00:18:52.975Z,54.64
2023-03-26T00:19:52.942Z,54.38
2023-03-26T00:20:52.932Z,55.06
2023-03-26T00:21:52.955Z,56.71
2023-03-26T00:22:52.919Z,54.77
2023-03-26T00:23:52.979Z,54.22
2023-03-26T00:24:52.900Z,52.03
2023-03-26T00:25:53.103Z,54.05
2023-03-26T00:26:52.883Z,53.28
2023-03-26T00:27:52.887Z,56.03
2023-03-26T00:28:52.876Z,54.84
2023-03-26T00:29:52.894Z,57.55
2023-03-26T00:30:52.898Z,54.15
2023-03-26T00:31:52.855Z,55.28
2023-03-26T00:32:53.399Z,52.43
2023-03-26T00:33:52.858Z,55.98
2023-03-26T00:34:52.880Z,52.46
2023-03-26T00:35:53.050Z,51.14
2023-03-26T00:36:52.841Z,54.36
2023-03-26T00:37:52.833Z,55.06
2023-03-26T00:38:52.796Z,56.47
2023-03-26T00:39:52.875Z,53.39
2023-03-26T00:40:53.808Z,56.58
2023-03-26T00:41:52.815Z,56.27
2023-03-26T00:42:52.770Z,52.78
2023-03-26T00:43:52.796Z,56.57
2023-03-26T00:44:52.797Z,54.50
2023-03-26T00:45:53.191Z,53.68
2023-03-26T00:46:52.791Z,54.83
2023-03-26T00:47:52.801Z,54.69
2023-03-26T00:48:52.737Z,53.54
2023-03-26T00:49:52.746Z,51.62
2023-03-26T00:50:52.720Z,56.05
2023-03-26T00:51:52.743Z,56.86
2023-03-26T00:52:52.733Z,54.97
2023-03-26T00:53:52.738Z,55.61
2023-03-26T00:54:52.706Z,54.94
2023-03-26T00:55:52.841Z,55.80
2023-03-26T00:56:52.746Z,53.88
2023-03-26T00:57:52.698Z,52.79
2023-03-26T00:58:52.679Z,54.43
2023-03-26T00:59:52.705Z,54.17
2023-03-26T01:00:52.670Z,53.05
2023-03-26T01:01:52.717Z,55.47
2023-03-26T01:02:52.729Z,53.62
2023-03-26T01:04:06.734Z,53.60
2023-03-26T01:04:53.655Z,54.49
2023-03-26T01:05:53.027Z,58.56
2023-03-26T01:06:52.649Z,54.18
2023-03-26T01:07:52.632Z,52.31
2023-03-26T01:08:52.624Z,52.61
2023-03-26T01:09:52.662Z,56.67
2023-03-26T01:10:52.635Z,57.19
2023-03-26T01:11:52.612Z,51.73
2023-03-26T01:12:52.594Z,55.94
2023-03-26T01:13:52.615Z,55.58
2023-03-26T01:14:52.581Z,55.35
2023-03-26T01:15:52.890Z,53.02
2023-03-26T01:16:52.708Z,52.76
2023-03-26T01:17:52.633Z,52.05
2023-03-26T01:18:52.571Z,54.26
2023-03-26T01:19:52.610Z,51.61
2023-03-26T01:20:52.539Z,53.01
2023-03-26T01:21:52.590Z,51.00
2023-03-26T01:22:52.563Z,51.04
2023-03-26T01:23:52.581Z,55.20
2023-03-26T01:24:52.572Z,56.55
2023-03-26T01:25:52.822Z,54.47
2023-03-26T01:26:52.512Z,49.94
2023-03-26T01:27:52.539Z,54.69
2023-03-26T01:28:52.485Z,55.25
2023-03-26T01:29:52.587Z,53.98
2023-03-26T01:30:52.466Z,53.73
2023-03-26T01:31:52.492Z,55.27
2023-03-26T01:32:52.523Z,53.11
2023-03-26T01:33:52.492Z,52.46
2023-03-26T01:34:52.468Z,53.94
2023-03-26T01:35:52.629Z,51.80
2023-03-26T01:36:52.436Z,51.85
2023-03-26T01:37:52.542Z,54.08
2023-03-26T01:38:52.422Z,53.90
2023-03-26T01:39:52.442Z,54.20
2023-03-26T01:40:52.453Z,54.80
2023-03-26T01:41:52.416Z,54.39
2023-03-26T01:42:52.405Z,54.22
2023-03-26T01:43:52.416Z,52.08
2023-03-26T01:44:52.378Z,53.25
2023-03-26T01:45:52.697Z,51.12
2023-03-26T01:46:52.546Z,56.27
2023-03-26T01:47:52.506Z,54.49
2023-03-26T01:48:52.365Z,53.75
2023-03-26T01:49:52.373Z,54.21
2023-03-26T01:50:52.352Z,54.26
2023-03-26T01:51:52.347Z,55.37
2023-03-26T01:52:52.324Z,53.45
2023-03-26T01:53:52.340Z,53.60
2023-03-26T01:54:52.322Z,51.45
2023-03-26T01:55:52.491Z,51.55
2023-03-26T01:56:52.365Z,51.81
2023-03-26T01:57:52.323Z,52.66
2023-03-26T01:58:52.294Z,53.27
2023-03-26T01:59:52.304Z,53.10
2023-03-26T02:00:52.271Z,51.22
2023-03-26T02:01:52.401Z,50.64
2023-03-26T02:02:52.350Z,51.24
2023-03-26T02:03:52.288Z,51.27
2023-03-26T02:04:52.248Z,53.85
2023-03-26T02:05:52.642Z,54.32
2023-03-26T02:06:52.258Z,52.22
2023-03-26T02:07:52.277Z,52.65
2023-03-26T02:08:52.224Z,49.09
2023-03-26T02:09:52.255Z,49.06
2023-03-26T02:10:52.197Z,52.80
2023-03-26T02:11:52.222Z,51.66
2023-03-26T02:12:52.233Z,52.28
2023-03-26T02:13:52.209Z,53.19
2023-03-26T02:14:52.178Z,51.99
2023-03-26T02:15:52.398Z,50.41
2023-03-26T02:16:52.169Z,50.68
2023-03-26T02:17:52.333Z,52.26
2023-03-26T02:18:52.170Z,54.78
2023-03-26T02:19:52.153Z,49.63
2023-03-26T02:20:52.149Z,49.85
2023-03-26T02:21:52.172Z,53.87
2023-03-26T02:22:52.161Z,51.43
2023-03-26T02:23:52.138Z,51.34
2023-03-26T02:24:52.133Z,51.62
2023-03-26T02:25:52.431Z,52.87
2023-03-26T02:26:52.100Z,50.03
2023-03-26T02:27:52.123Z,51.57
2023-03-26T02:28:52.090Z,52.65
2023-03-26T02:29:52.111Z,48.47
2023-03-26T02:30:52.075Z,50.04
2023-03-26T02:31:52.103Z,53.70
2023-03-26T02:32:52.115Z,53.31
2023-03-26T02:33:52.058Z,52.53
2023-03-26T02:34:52.067Z,51.67
2023-03-26T02:35:52.276Z,50.55
2023-03-26T02:36:52.116Z,51.32
2023-03-26T02:37:52.056Z,51.80
2023-03-26T02:38:52.020Z,49.97
2023-03-26T02:39:52.064Z,52.06
2023-03-26T02:40:51.999Z,52.05
2023-03-26T02:41:52.051Z,55.57
2023-03-26T02:42:51.987Z,56.16
2023-03-26T02:43:52.003Z,50.80
2023-03-26T02:44:51.990Z,50.61
2023-03-26T02:45:52.061Z,52.70
2023-03-26T02:46:51.970Z,53.67
2023-03-26T02:47:52.008Z,53.72
2023-03-26T02:48:52.021Z,54.31
2023-03-26T02:49:51.974Z,52.00
2023-03-26T02:50:51.933Z,52.15
2023-03-26T02:51:51.949Z,51.21
2023-03-26T02:52:51.921Z,53.24
2023-03-26T02:53:51.950Z,53.96
2023-03-26T02:54:51.958Z,52.33
2023-03-26T02:55:52.182Z,54.40
2023-03-26T02:56:51.949Z,52.17
2023-03-26T02:57:51.909Z,53.13
2023-03-26T02:58:51.903Z,49.37
2023-03-26T02:59:51.915Z,53.18
2023-03-26T03:00:51.922Z,51.84
2023-03-26T03:01:51.886Z,55.39
2023-03-26T03:02:51.983Z,56.34
2023-03-26T03:03:51.905Z,53.43
2023-03-26T03:04:51.887Z,50.42
2023-03-26T03:05:52.053Z,53.20
2023-03-26T03:06:51.839Z,52.01
2023-03-26T03:07:51.852Z,53.30
2023-03-26T03:08:51.853Z,54.40
2023-03-26T03:09:51.921Z,52.69
2023-03-26T03:10:51.820Z,53.08
2023-03-26T03:11:51.839Z,52.15
2023-03-26T03:12:51.815Z,52.57
2023-03-26T03:13:51.827Z,51.80
2023-03-26T03:14:51.806Z,53.15
2023-03-26T03:15:51.832Z,51.48
2023-03-26T03:16:51.804Z,52.45
2023-03-26T03:17:51.853Z,51.37
2023-03-26T03:18:51.791Z,56.59
2023-03-26T03:19:51.768Z,56.57
2023-03-26T03:20:51.744Z,56.01
2023-03-26T03:21:51.751Z,52.22
2023-03-26T03:22:51.732Z,52.70
2023-03-26T03:23:51.747Z,52.57
2023-03-26T03:24:51.740Z,51.44
2023-03-26T03:25:51.773Z,53.24
2023-03-26T03:26:51.719Z,55.36
2023-03-26T03:27:51.731Z,54.93
2023-03-26T03:28:51.693Z,53.73
2023-03-26T03:29:51.728Z,51.08
2023-03-26T03:30:51.726Z,51.30
2023-03-26T03:31:51.690Z,53.04
2023-03-26T03:32:51.682Z,52.72
2023-03-26T03:33:51.676Z,53.01
2023-03-26T03:34:51.644Z,52.39
2023-03-26T03:35:51.717Z,53.21
2023-03-26T03:36:51.665Z,53.23
2023-03-26T03:37:51.667Z,52.09
2023-03-26T03:38:51.632Z,53.88
2023-03-26T03:39:51.642Z,54.86
2023-03-26T03:40:51.617Z,53.27
2023-03-26T03:41:51.644Z,53.67
2023-03-26T03:42:51.640Z,57.01
2023-03-26T03:43:51.607Z,56.70
2023-03-26T03:44:51.647Z,54.61
2023-03-26T03:45:51.631Z,55.57
2023-03-26T03:46:51.603Z,52.59
2023-03-26T03:47:51.583Z,56.54
2023-03-26T03:48:51.574Z,53.05
2023-03-26T03:49:51.557Z,55.45
2023-03-26T03:50:51.534Z,56.73
2023-03-26T03:51:51.554Z,57.00
2023-03-26T03:52:51.546Z,55.00
2023-03-26T03:53:51.538Z,54.92
2023-03-26T03:54:51.536Z,55.67
2023-03-26T03:55:51.578Z,53.88
2023-03-26T03:56:51.522Z,52.18
2023-03-26T03:57:51.544Z,56.02
2023-03-26T03:58:51.507Z,53.35
2023-03-26T03:59:51.568Z,54.74
2023-03-26T04:00:51.501Z,53.37
2023-03-26T04:01:51.489Z,55.55
2023-03-26T04:02:51.521Z,54.14
2023-03-26T04:03:51.511Z,58.88
2023-03-26T04:04:51.455Z,53.14
2023-03-26T04:05:51.493Z,55.84
2023-03-26T04:06:51.439Z,58.52
2023-03-26T04:07:51.459Z,54.67
2023-03-26T04:08:51.484Z,58.00
2023-03-26T04:09:51.432Z,57.67
2023-03-26T04:10:51.484Z,55.82
2023-03-26T04:11:51.412Z,57.54
2023-03-26T04:12:51.385Z,56.73
2023-03-26T04:13:51.410Z,56.04
2023-03-26T04:14:51.404Z,59.82
2023-03-26T04:15:51.427Z,57.80
2023-03-26T04:16:51.387Z,58.54
2023-03-26T04:17:51.418Z,58.90
2023-03-26T04:18:51.354Z,57.30
2023-03-26T04:19:51.363Z,57.92
2023-03-26T04:20:51.394Z,58.34
2023-03-26T04:21:51.339Z,58.06
2023-03-26T04:22:51.316Z,60.08
2023-03-26T04:23:51.313Z,58.74
2023-03-26T04:24:51.312Z,58.47
2023-03-26T04:25:51.352Z,59.59
2023-03-26T04:26:51.273Z,61.09
2023-03-26T04:27:51.292Z,59.21
2023-03-26T04:28:51.262Z,58.75
2023-03-26T04:29:51.293Z,59.91
2023-03-26T04:30:51.275Z,59.39
2023-03-26T04:31:51.311Z,59.44
2023-03-26T04:32:51.294Z,58.89
2023-03-26T04:33:51.262Z,57.56
2023-03-26T04:34:51.288Z,58.32
2023-03-26T04:35:51.284Z,57.69
2023-03-26T04:36:51.222Z,56.82
2023-03-26T04:37:51.240Z,56.11
2023-03-26T04:38:51.218Z,58.45
2023-03-26T04:39:51.213Z,57.82
2023-03-26T04:40:51.181Z,59.57
2023-03-26T04:41:51.200Z,59.28
2023-03-26T04:42:51.171Z,58.43
2023-03-26T04:43:51.209Z,56.24
2023-03-26T04:44:51.194Z,56.94
2023-03-26T04:45:51.167Z,56.04
2023-03-26T04:46:51.200Z,56.63
2023-03-26T04:47:51.216Z,59.12
2023-03-26T04:48:51.148Z,55.67
2023-03-26T04:49:51.187Z,54.94
2023-03-26T04:50:51.148Z,58.16
2023-03-26T04:51:51.140Z,59.52
2023-03-26T04:52:51.123Z,55.21
2023-03-26T04:53:51.143Z,55.09
2023-03-26T04:54:51.116Z,57.17
2023-03-26T04:55:51.133Z,54.80
2023-03-26T04:56:51.142Z,55.26
2023-03-26T04:57:51.149Z,55.24
2023-03-26T04:58:51.084Z,53.60
2023-03-26T04:59:51.090Z,55.88
2023-03-26T05:00:51.096Z,58.30
2023-03-26T05:01:51.075Z,57.82
2023-03-26T05:02:51.151Z,57.87
2023-03-26T05:03:51.098Z,55.72
2023-03-26T05:04:51.051Z,55.85
2023-03-26T05:05:51.110Z,56.61
2023-03-26T05:06:51.047Z,55.72
2023-03-26T05:07:51.062Z,54.47
2023-03-26T05:08:51.081Z,57.48
2023-03-26T05:09:51.139Z,56.47
2023-03-26T05:10:51.040Z,59.44
2023-03-26T05:11:51.060Z,56.37
2023-03-26T05:12:51.001Z,57.84
2023-03-26T05:13:51.016Z,60.71
2023-03-26T05:14:51.003Z,58.95
2023-03-26T05:15:51.004Z,55.82
2023-03-26T05:16:51.075Z,59.85
2023-03-26T05:17:51.011Z,60.40
2023-03-26T05:18:50.985Z,58.77
2023-03-26T05:19:50.972Z,62.74
2023-03-26T05:20:50.967Z,61.36
2023-03-26T05:21:50.966Z,59.06
2023-03-26T05:22:50.968Z,58.66
2023-03-26T05:23:50.982Z,59.71
2023-03-26T05:24:50.941Z,59.85
2023-03-26T05:25:50.984Z,58.03
2023-03-26T05:26:50.916Z,58.43
2023-03-26T05:27:50.948Z,56.78
2023-03-26T05:28:52.576Z,61.63
2023-03-26T05:29:50.912Z,58.27
2023-03-26T05:30:50.908Z,60.07
2023-03-26T05:31:50.902Z,60.35
2023-03-26T05:32:50.950Z,59.84
2023-03-26T05:33:50.943Z,58.92
2023-03-26T05:34:50.887Z,58.77
2023-03-26T05:35:50.914Z,59.46
2023-03-26T05:36:50.858Z,58.65
2023-03-26T05:37:50.921Z,57.82
2023-03-26T05:38:52.613Z,57.65
2023-03-26T05:39:50.862Z,56.58
2023-03-26T05:40:50.837Z,56.59
2023-03-26T05:41:50.856Z,57.54
2023-03-26T05:42:50.813Z,58.65
2023-03-26T05:43:50.864Z,59.04
2023-03-26T05:44:50.835Z,60.06
2023-03-26T05:45:50.828Z,61.60
2023-03-26T05:46:50.803Z,59.50
2023-03-26T05:47:50.879Z,58.22
2023-03-26T05:48:50.793Z,55.69
2023-03-26T05:49:50.807Z,57.23
2023-03-26T05:50:50.793Z,56.33
2023-03-26T05:51:50.778Z,59.22
2023-03-26T05:52:50.765Z,56.33
2023-03-26T05:53:50.776Z,58.02
2023-03-26T05:54:50.765Z,60.59
2023-03-26T05:55:50.794Z,58.60
2023-03-26T05:56:50.789Z,56.50
2023-03-26T05:57:50.741Z,57.88
2023-03-26T05:58:51.921Z,59.71
2023-03-26T05:59:50.745Z,58.63
2023-03-26T06:00:50.700Z,60.53
2023-03-26T06:01:50.729Z,56.55
2023-03-26T06:02:50.737Z,59.57
2023-03-26T06:03:51.809Z,58.26
2023-03-26T06:04:50.746Z,56.92
2023-03-26T06:05:50.683Z,56.77
2023-03-26T06:06:50.713Z,57.50
2023-03-26T06:07:50.680Z,56.52
2023-03-26T06:09:01.813Z,58.38
2023-03-26T06:09:51.672Z,55.89
2023-03-26T06:10:50.630Z,55.06
2023-03-26T06:11:50.657Z,56.39
2023-03-26T06:12:50.649Z,56.29
2023-03-26T06:13:50.627Z,55.10
2023-03-26T06:14:50.607Z,53.82
2023-03-26T06:15:50.679Z,53.08
2023-03-26T06:16:50.631Z,52.58
2023-03-26T06:17:50.611Z,54.23
2023-03-26T06:18:50.586Z,56.42
2023-03-26T06:19:51.588Z,57.15
2023-03-26T06:20:50.566Z,53.93
2023-03-26T06:21:50.596Z,56.08
2023-03-26T06:22:50.564Z,54.09
2023-03-26T06:23:50.561Z,58.76
2023-03-26T06:24:50.544Z,56.04
2023-03-26T06:25:50.527Z,57.02
2023-03-26T06:26:50.512Z,59.51
2023-03-26T06:27:50.535Z,60.08
2023-03-26T06:28:50.522Z,57.51
2023-03-26T06:29:50.522Z,58.18
2023-03-26T06:30:50.591Z,60.46
2023-03-26T06:31:50.482Z,57.39
2023-03-26T06:32:50.572Z,55.56
2023-03-26T06:33:50.495Z,58.55
2023-03-26T06:34:50.485Z,58.90
2023-03-26T06:35:50.589Z,58.99
2023-03-26T06:36:50.464Z,58.39
2023-03-26T06:37:50.453Z,57.89
2023-03-26T06:38:50.442Z,58.75
2023-03-26T06:39:50.495Z,55.60
2023-03-26T06:40:50.480Z,60.87
2023-03-26T06:41:50.421Z,59.33
2023-03-26T06:43:08.486Z,58.68
2023-03-26T06:43:51.436Z,58.31
2023-03-26T06:44:50.428Z,58.18
2023-03-26T06:45:50.407Z,59.66
2023-03-26T06:46:50.461Z,58.91
2023-03-26T06:47:50.414Z,57.85
2023-03-26T06:48:50.357Z,57.66
2023-03-26T06:49:50.385Z,56.94
2023-03-26T06:50:50.377Z,60.94
2023-03-26T06:51:50.382Z,59.72
2023-03-26T06:52:50.355Z,56.08
2023-03-26T06:53:50.367Z,58.50
2023-03-26T06:54:50.339Z,59.95
2023-03-26T06:55:50.384Z,57.01
2023-03-26T06:56:50.364Z,59.37
2023-03-26T06:57:50.316Z,54.04
2023-03-26T06:58:50.316Z,54.90
2023-03-26T06:59:50.302Z,54.02
2023-03-26T07:00:50.321Z,59.30
2023-03-26T07:01:50.312Z,56.74
2023-03-26T07:02:50.306Z,58.69
2023-03-26T07:03:50.291Z,59.54
2023-03-26T07:04:50.264Z,57.38
2023-03-26T07:05:50.269Z,55.98
2023-03-26T07:06:50.242Z,58.09
2023-03-26T07:07:50.251Z,60.33
2023-03-26T07:08:50.267Z,59.38
2023-03-26T07:09:50.264Z,58.04
2023-03-26T07:10:50.221Z,55.47
2023-03-26T07:11:50.229Z,58.95
2023-03-26T07:12:50.199Z,60.55
2023-03-26T07:13:50.242Z,61.11
2023-03-26T07:14:50.586Z,56.91
2023-03-26T07:15:50.201Z,60.73
2023-03-26T07:16:50.193Z,61.65
2023-03-26T07:17:50.232Z,61.70
2023-03-26T07:18:50.162Z,57.33
2023-03-26T07:19:50.392Z,57.64
2023-03-26T07:20:50.207Z,59.72
2023-03-26T07:21:50.165Z,61.51
2023-03-26T07:22:50.159Z,59.48
2023-03-26T07:23:50.186Z,59.25
2023-03-26T07:24:50.123Z,58.42
2023-03-26T07:25:50.137Z,59.57
2023-03-26T07:26:50.146Z,58.87
2023-03-26T07:27:50.151Z,59.37
2023-03-26T07:29:03.811Z,61.73
2023-03-26T07:29:51.127Z,59.54
2023-03-26T07:30:50.110Z,58.97
2023-03-26T07:31:50.138Z,58.98
2023-03-26T07:32:50.125Z,58.08
2023-03-26T07:33:50.104Z,55.73
2023-03-26T07:34:50.053Z,57.03
2023-03-26T07:35:50.092Z,60.41
2023-03-26T07:36:50.062Z,57.57
2023-03-26T07:37:50.059Z,59.22
2023-03-26T07:38:50.034Z,61.17
2023-03-26T07:39:50.085Z,59.84
2023-03-26T07:40:50.043Z,61.04
2023-03-26T07:41:50.070Z,61.24
2023-03-26T07:42:49.994Z,60.61
2023-03-26T07:43:50.023Z,59.35
2023-03-26T07:44:49.989Z,60.71
2023-03-26T07:45:50.050Z,58.32
2023-03-26T07:46:50.034Z,58.61
2023-03-26T07:47:50.048Z,58.22
2023-03-26T07:48:49.990Z,58.63
2023-03-26T07:49:49.993Z,60.03
2023-03-26T07:50:49.942Z,60.49
2023-03-26T07:51:49.948Z,59.38
2023-03-26T07:52:49.934Z,59.95
2023-03-26T07:53:49.959Z,59.48
2023-03-26T07:54:49.941Z,58.39
2023-03-26T07:55:49.931Z,60.30
2023-03-26T07:56:50.008Z,60.23
2023-03-26T07:57:49.910Z,60.85
2023-03-26T07:58:49.885Z,61.32
2023-03-26T07:59:49.899Z,60.15
2023-03-26T08:00:49.906Z,60.57
2023-03-26T08:01:49.904Z,59.35
2023-03-26T08:02:49.928Z,60.89
2023-03-26T08:03:49.941Z,61.12
2023-03-26T08:04:49.925Z,61.13
2023-03-26T08:05:49.856Z,59.96
2023-03-26T08:06:49.864Z,60.91
2023-03-26T08:07:49.849Z,62.03
2023-03-26T08:08:49.845Z,60.19
2023-03-26T08:09:49.844Z,60.04
2023-03-26T08:10:49.850Z,61.90
2023-03-26T08:11:49.839Z,64.73
2023-03-26T08:12:49.818Z,61.76
2023-03-26T08:13:49.812Z,62.30
2023-03-26T08:14:49.782Z,62.79
2023-03-26T08:15:49.932Z,62.57
2023-03-26T08:16:49.776Z,61.43
2023-03-26T08:17:49.802Z,62.38
2023-03-26T08:18:49.758Z,62.52
2023-03-26T08:19:49.780Z,63.34
2023-03-26T08:20:49.737Z,61.92
2023-03-26T08:21:49.783Z,62.21
2023-03-26T08:22:49.744Z,62.53
2023-03-26T08:23:51.024Z,62.71
2023-03-26T08:24:49.725Z,61.24
2023-03-26T08:25:49.733Z,61.01
2023-03-26T08:26:49.737Z,61.97
2023-03-26T08:27:49.716Z,62.74
2023-03-26T08:28:49.720Z,62.52
2023-03-26T08:29:49.696Z,59.53
2023-03-26T08:30:49.726Z,60.67
2023-03-26T08:31:49.708Z,61.99
2023-03-26T08:32:49.709Z,60.85
2023-03-26T08:33:49.670Z,61.59
2023-03-26T08:34:49.692Z,63.37
2023-03-26T08:35:49.721Z,61.05
2023-03-26T08:36:49.625Z,62.35
2023-03-26T08:37:49.678Z,61.76
2023-03-26T08:38:49.662Z,62.75
2023-03-26T08:39:49.694Z,61.42
2023-03-26T08:40:49.625Z,60.70
2023-03-26T08:41:49.671Z,61.53
2023-03-26T08:42:49.605Z,62.56
2023-03-26T08:43:49.601Z,61.01
2023-03-26T08:44:49.641Z,59.88
2023-03-26T08:45:49.589Z,62.05
2023-03-26T08:46:49.593Z,60.37
2023-03-26T08:47:49.609Z,62.46
2023-03-26T08:48:49.589Z,60.88
2023-03-26T08:49:49.573Z,61.44
2023-03-26T08:50:49.586Z,60.47
2023-03-26T08:51:49.547Z,60.89
2023-03-26T08:52:49.611Z,61.01
2023-03-26T08:53:49.532Z,60.86
2023-03-26T08:54:49.516Z,60.92
2023-03-26T08:55:49.543Z,60.35
2023-03-26T08:56:49.580Z,60.21
2023-03-26T08:57:49.536Z,62.22
2023-03-26T08:58:49.507Z,60.78
2023-03-26T08:59:49.481Z,61.25
2023-03-26T09:00:49.462Z,60.84
2023-03-26T09:01:49.514Z,62.54
2023-03-26T09:02:49.476Z,61.28
2023-03-26T09:03:49.518Z,59.66
2023-03-26T09:04:49.456Z,60.68
2023-03-26T09:05:49.434Z,62.57
2023-03-26T09:06:49.502Z,61.69
2023-03-26T09:07:49.433Z,61.74
2023-03-26T09:08:54.250Z,61.74
2023-03-26T09:09:50.494Z,62.60
2023-03-26T09:10:49.386Z,61.53
2023-03-26T09:11:49.428Z,60.98
2023-03-26T09:12:49.388Z,62.51
2023-03-26T09:13:49.408Z,60.29
2023-03-26T09:14:49.383Z,59.84
2023-03-26T09:15:49.426Z,61.50
2023-03-26T09:16:49.373Z,61.35
2023-03-26T09:17:49.494Z,60.39
2023-03-26T09:18:49.334Z,60.59
2023-03-26T09:19:49.389Z,61.92
2023-03-26T09:20:49.331Z,62.49
2023-03-26T09:21:49.358Z,61.51
2023-03-26T09:22:49.314Z,62.58
2023-03-26T09:23:49.340Z,61.17
2023-03-26T09:24:49.309Z,60.42
2023-03-26T09:25:49.323Z,62.50
2023-03-26T09:26:49.280Z,62.14
2023-03-26T09:27:49.288Z,62.17
2023-03-26T09:28:49.270Z,62.25
2023-03-26T09:29:49.327Z,63.70
2023-03-26T09:30:49.279Z,63.04
2023-03-26T09:31:49.337Z,60.96
2023-03-26T09:32:49.293Z,60.40
2023-03-26T09:33:49.287Z,60.70
2023-03-26T09:34:49.232Z,64.02
2023-03-26T09:35:49.267Z,63.46
2023-03-26T09:36:49.218Z,62.03
2023-03-26T09:37:57.297Z,61.83
2023-03-26T09:38:50.207Z,62.44
2023-03-26T09:39:49.246Z,61.25
2023-03-26T09:40:49.215Z,61.53
2023-03-26T09:41:49.248Z,61.58
2023-03-26T09:42:49.178Z,62.48
2023-03-26T09:43:49.227Z,60.59
2023-03-26T09:44:49.194Z,60.44
2023-03-26T09:45:49.232Z,62.29
2023-03-26T09:46:49.140Z,63.45
2023-03-26T09:47:49.187Z,62.06
2023-03-26T09:48:49.136Z,60.81
2023-03-26T09:49:49.178Z,60.80
2023-03-26T09:50:49.139Z,62.63
2023-03-26T09:51:49.142Z,62.38
2023-03-26T09:52:49.118Z,63.06
2023-03-26T09:53:49.132Z,60.72
2023-03-26T09:54:49.096Z,61.78
2023-03-26T09:55:49.145Z,63.42
2023-03-26T09:56:49.093Z,62.74
2023-03-26T09:57:49.124Z,61.77
2023-03-26T09:58:49.056Z,62.90
2023-03-26T09:59:49.081Z,62.61
2023-03-26T10:00:49.115Z,63.88
2023-03-26T10:01:49.060Z,62.25
2023-03-26T10:02:49.050Z,63.50
2023-03-26T10:03:49.061Z,63.15
2023-03-26T10:04:49.111Z,62.34
2023-03-26T10:05:49.027Z,62.77
2023-03-26T10:06:49.055Z,60.70
2023-03-26T10:07:49.048Z,61.34
2023-03-26T10:08:49.020Z,62.04
2023-03-26T10:09:49.001Z,61.95
2023-03-26T10:10:49.016Z,63.56
2023-03-26T10:11:48.993Z,63.48
2023-03-26T10:12:48.967Z,62.97
2023-03-26T10:13:49.002Z,61.69
2023-03-26T10:14:48.956Z,62.47
2023-03-26T10:15:48.984Z,62.96
2023-03-26T10:16:49.006Z,63.53
2023-03-26T10:17:49.032Z,62.32
2023-03-26T10:18:48.952Z,63.43
2023-03-26T10:19:48.940Z,63.80
2023-03-26T10:20:48.925Z,63.78
2023-03-26T10:21:48.951Z,63.09
2023-03-26T10:22:48.915Z,63.40
2023-03-26T10:23:48.937Z,63.73
2023-03-26T10:24:48.889Z,64.54
2023-03-26T10:25:48.929Z,63.56
2023-03-26T10:27:09.700Z,63.29
2023-03-26T10:27:49.902Z,63.94
2023-03-26T10:28:48.871Z,63.97
2023-03-26T10:29:48.894Z,64.26
2023-03-26T10:30:48.904Z,64.58
2023-03-26T10:31:48.853Z,63.83
2023-03-26T10:32:48.913Z,63.40
2023-03-26T10:33:48.869Z,64.85
2023-03-26T10:34:48.834Z,65.61
2023-03-26T10:35:48.905Z,66.03
2023-03-26T10:36:48.793Z,64.41
2023-03-26T10:37:48.811Z,65.17
2023-03-26T10:38:48.780Z,64.78
2023-03-26T10:39:48.823Z,65.94
2023-03-26T10:40:48.777Z,64.79
2023-03-26T10:41:48.805Z,64.89
2023-03-26T10:42:48.764Z,64.22
2023-03-26T10:43:57.843Z,64.99
2023-03-26T10:44:49.789Z,63.76
2023-03-26T10:45:48.794Z,65.17
2023-03-26T10:46:48.744Z,65.15
2023-03-26T10:47:48.771Z,63.43
2023-03-26T10:48:48.716Z,63.34
2023-03-26T10:49:48.745Z,65.01
2023-03-26T10:50:48.732Z,64.49
2023-03-26T10:51:48.726Z,65.54
2023-03-26T10:52:48.720Z,64.96
2023-03-26T10:53:48.734Z,66.22
2023-03-26T10:54:48.684Z,65.00
2023-03-26T10:55:48.692Z,64.82
2023-03-26T10:56:48.693Z,64.59
2023-03-26T10:57:48.672Z,63.63
2023-03-26T10:58:50.062Z,65.73
2023-03-26T10:59:48.676Z,62.46
2023-03-26T11:00:48.640Z,64.05
2023-03-26T11:01:48.769Z,64.11
2023-03-26T11:02:48.710Z,63.44
2023-03-26T11:03:48.649Z,64.29
2023-03-26T11:04:48.642Z,65.40
2023-03-26T11:05:48.677Z,65.81
2023-03-26T11:06:48.632Z,66.90
2023-03-26T11:07:48.636Z,66.39
2023-03-26T11:08:48.586Z,64.75
2023-03-26T11:09:48.583Z,66.28
2023-03-26T11:10:48.581Z,65.86
2023-03-26T11:11:48.621Z,64.23
2023-03-26T11:12:48.581Z,64.91
2023-03-26T11:13:48.599Z,65.03
2023-03-26T11:14:48.556Z,65.15
2023-03-26T11:15:48.564Z,63.71
2023-03-26T11:16:48.549Z,64.47
2023-03-26T11:17:48.564Z,64.09
2023-03-26T11:18:48.565Z,64.17
2023-03-26T11:19:48.542Z,64.21
2023-03-26T11:20:48.505Z,63.38
2023-03-26T11:21:48.518Z,64.47
2023-03-26T11:22:48.496Z,64.15
2023-03-26T11:23:48.523Z,64.94
2023-03-26T11:24:49.501Z,65.61
2023-03-26T11:25:48.504Z,64.41
2023-03-26T11:26:48.468Z,62.61
2023-03-26T11:27:48.486Z,62.90
2023-03-26T11:29:03.278Z,64.42
2023-03-26T11:29:49.467Z,65.39
2023-03-26T11:30:48.465Z,63.80
2023-03-26T11:31:48.526Z,64.86
2023-03-26T11:32:48.538Z,63.04
2023-03-26T11:33:48.442Z,63.70
2023-03-26T11:34:48.430Z,63.75
2023-03-26T11:35:48.477Z,64.50
2023-03-26T11:36:48.439Z,64.81
2023-03-26T11:37:48.449Z,64.06
2023-03-26T11:38:55.405Z,62.81
2023-03-26T11:39:48.409Z,63.73
2023-03-26T11:40:48.376Z,63.89
2023-03-26T11:41:48.401Z,63.39
2023-03-26T11:42:48.377Z,63.54
2023-03-26T11:43:48.414Z,62.61
2023-03-26T11:44:48.355Z,63.74
2023-03-26T11:45:48.399Z,65.44
2023-03-26T11:46:48.382Z,63.08
2023-03-26T11:47:48.370Z,63.39
2023-03-26T11:48:48.339Z,63.65
2023-03-26T11:49:48.349Z,64.53
2023-03-26T11:50:48.321Z,63.79
2023-03-26T11:51:48.338Z,63.91
2023-03-26T11:52:48.308Z,64.55
2023-03-26T11:53:48.322Z,63.79
2023-03-26T11:54:48.280Z,63.92
2023-03-26T11:55:48.331Z,63.38
2023-03-26T11:57:04.905Z,64.12
2023-03-26T11:57:49.280Z,64.00
2023-03-26T11:58:48.256Z,64.35
2023-03-26T11:59:56.439Z,64.40
2023-03-26T12:00:49.253Z,65.23
2023-03-26T12:01:48.298Z,64.19
2023-03-26T12:02:48.279Z,64.03
2023-03-26T12:03:48.258Z,63.11
2023-03-26T12:04:48.255Z,64.56
2023-03-26T12:05:48.223Z,63.97
2023-03-26T12:06:48.255Z,63.51
2023-03-26T12:07:48.231Z,64.07
2023-03-26T12:08:48.169Z,64.71
2023-03-26T12:09:48.188Z,64.57
2023-03-26T12:10:48.160Z,63.78
2023-03-26T12:11:48.186Z,65.27
2023-03-26T12:12:48.185Z,65.16
2023-03-26T12:13:48.227Z,62.87
2023-03-26T12:14:48.145Z,64.04
2023-03-26T12:15:48.175Z,64.18
2023-03-26T12:16:48.152Z,64.34
2023-03-26T12:17:48.227Z,64.07
2023-03-26T12:18:48.122Z,63.58
2023-03-26T12:19:48.126Z,63.01
2023-03-26T12:20:48.134Z,64.48
2023-03-26T12:21:48.138Z,65.25
2023-03-26T12:22:48.109Z,64.23
2023-03-26T12:23:48.148Z,63.04
2023-03-26T12:24:48.068Z,63.77
2023-03-26T12:25:48.084Z,63.09
2023-03-26T12:26:48.049Z,65.17
2023-03-26T12:27:48.065Z,63.94
2023-03-26T12:28:48.066Z,65.14
2023-03-26T12:29:48.067Z,63.85
2023-03-26T12:30:48.037Z,65.59
2023-03-26T12:31:48.042Z,65.81
2023-03-26T12:32:48.055Z,65.94
2023-03-26T12:33:49.058Z,65.61
2023-03-26T12:34:47.995Z,65.00
2023-03-26T12:35:48.122Z,64.31
2023-03-26T12:36:47.987Z,64.97
2023-03-26T12:37:47.995Z,65.03
2023-03-26T12:39:42.894Z,64.77
2023-03-26T12:40:10.275Z,65.15
2023-03-26T12:40:48.993Z,64.78
2023-03-26T12:44:44.187Z,64.98
2023-03-26T12:44:44.826Z,63.99
2023-03-26T12:44:52.618Z,65.77
2023-03-26T12:44:59.112Z,65.11
2023-03-26T12:45:48.009Z,64.30
2023-03-26T12:47:57.979Z,63.88
2023-03-26T12:48:02.290Z,65.64
2023-03-26T12:48:49.032Z,65.95
2023-03-26T12:49:47.945Z,66.60
2023-03-26T12:50:47.895Z,64.78
2023-03-26T12:51:47.930Z,64.66
2023-03-26T12:52:47.873Z,63.61